PWSweather.com
Personal Weather Stations
Station Observations
CW6888
Sola Virtus Observatory, Norrisville, MD

Sola Virtus ObservatoryNorrisville, MD

Lat: 39.7025, Lon: -76.5447

Elevation: 738

Station Type: Davis Vantage Pro2

http://sola-virtus-observatory.org

Latest ConditionsUpdated 10:20:00 AM EDT Tuesday, Jul 23, 2019
Currently Today's Max Today's Min Today's Average
Temperature 67.6°F19.8°C 70.6°F21.4°C 64.8°F18.2°C 65.9°F18.8°C
Dew Point 64.2°F17.9°C 69.1°F20.6°C 63.0°F17.2°C 63.9°F17.7°C
Winds 3.0 mph NNE4.8 kmh NNE 7.0 mph -11.3 kmh - - 3.8 mph 6.1 kmh
Wind Gusts 5.0 mph8.0 kmh 13.0 mph20.9 kmh - -
Humidity 89% 95% 89% 93%
Pressure 29.85 in1010.8 mb 29.87 in1011.5 mb 29.74 in1007.1 mb -
Precipitation - 0.69 in17.5 mm - -
Hour Temp Dew Point Humidity Winds Wind Gusts Pressure Precip Precip Rate Daily Precip Total
10:20 AM 67.6°F19.8°C 64.2°F17.9°C 89% 3.0 mph NNE4.8 kmh NNE 5.0 mph8.0 kmh 29.85 in1010.8 mb 0.01 in0.3 mm 0.00 in0.0 mm 0.69 in17.5 mm
10:00 AM 67.5°F19.7°C 64.5°F18.1°C 90% 3.0 mph NNE4.8 kmh NNE 8.0 mph12.9 kmh 29.86 in1011.2 mb 0.01 in0.3 mm 0.02 in0.5 mm 0.69 in17.5 mm
09:40 AM 67.2°F19.6°C 64.2°F17.9°C 90% 3.0 mph NNE4.8 kmh NNE 8.0 mph12.9 kmh 29.86 in1011.2 mb 0.00 in0.0 mm 0.00 in0.0 mm 0.68 in17.3 mm
09:20 AM 66.8°F19.3°C 64.1°F17.8°C 91% 3.0 mph NE4.8 kmh NE 6.0 mph9.7 kmh 29.87 in1011.5 mb 0.00 in0.0 mm 0.00 in0.0 mm 0.68 in17.3 mm
09:00 AM 66.5°F19.2°C 64.4°F18.0°C 93% 3.0 mph NE4.8 kmh NE 6.0 mph9.7 kmh 29.86 in1011.2 mb 0.00 in0.0 mm 0.00 in0.0 mm 0.68 in17.3 mm
08:40 AM 65.9°F18.8°C 63.8°F17.7°C 93% 3.0 mph NE4.8 kmh NE 8.0 mph12.9 kmh 29.86 in1011.2 mb 0.00 in0.0 mm 0.00 in0.0 mm 0.68 in17.3 mm
08:20 AM 65.6°F18.7°C 63.8°F17.7°C 94% 3.0 mph NE4.8 kmh NE 5.0 mph8.0 kmh 29.84 in1010.5 mb 0.00 in0.0 mm 0.00 in0.0 mm 0.68 in17.3 mm
08:00 AM 65.2°F18.4°C 63.4°F17.4°C 94% 3.0 mph NE4.8 kmh NE 5.0 mph8.0 kmh 29.84 in1010.5 mb 0.15 in3.8 mm 0.00 in0.0 mm 0.68 in17.3 mm
07:40 AM 65.1°F18.4°C 63.3°F17.4°C 94% 3.0 mph NE4.8 kmh NE 8.0 mph12.9 kmh 29.84 in1010.5 mb 0.15 in3.8 mm 0.00 in0.0 mm 0.68 in17.3 mm
07:20 AM 65.0°F18.3°C 63.2°F17.3°C 94% 3.0 mph NE4.8 kmh NE 8.0 mph12.9 kmh 29.83 in1010.2 mb 0.15 in3.8 mm 0.45 in11.4 mm 0.68 in17.3 mm
07:00 AM 65.0°F18.3°C 63.2°F17.3°C 94% 2.0 mph NE3.2 kmh NE 4.0 mph6.4 kmh 29.83 in1010.2 mb 0.00 in0.0 mm 0.00 in0.0 mm 0.53 in13.5 mm
06:40 AM 64.9°F18.3°C 63.1°F17.3°C 94% 4.0 mph NE6.4 kmh NE 6.0 mph9.7 kmh 29.82 in1009.8 mb 0.00 in0.0 mm 0.00 in0.0 mm 0.53 in13.5 mm
06:20 AM 64.8°F18.2°C 63.0°F17.2°C 94% 4.0 mph NE6.4 kmh NE 9.0 mph14.5 kmh 29.80 in1009.1 mb 0.00 in0.0 mm 0.00 in0.0 mm 0.53 in13.5 mm
06:00 AM 64.8°F18.2°C 63.0°F17.2°C 94% 4.0 mph NE6.4 kmh NE 9.0 mph14.5 kmh 29.80 in1009.1 mb 0.00 in0.0 mm 0.00 in0.0 mm 0.53 in13.5 mm
05:40 AM 64.8°F18.2°C 63.0°F17.2°C 94% 5.0 mph NNE8.0 kmh NNE 11.0 mph17.7 kmh 29.79 in1008.8 mb 0.00 in0.0 mm 0.00 in0.0 mm 0.53 in13.5 mm
05:20 AM 64.9°F18.3°C 63.1°F17.3°C 94% 4.0 mph NE6.4 kmh NE 9.0 mph14.5 kmh 29.78 in1008.5 mb 0.00 in0.0 mm 0.00 in0.0 mm 0.53 in13.5 mm
05:00 AM 64.9°F18.3°C 63.1°F17.3°C 94% 4.0 mph NNE6.4 kmh NNE 9.0 mph14.5 kmh 29.77 in1008.1 mb 0.00 in0.0 mm 0.00 in0.0 mm 0.53 in13.5 mm
04:40 AM 64.9°F18.3°C 63.1°F17.3°C 94% 5.0 mph NNE8.0 kmh NNE 10.0 mph16.1 kmh 29.77 in1008.1 mb 0.00 in0.0 mm 0.00 in0.0 mm 0.53 in13.5 mm
04:20 AM 64.9°F18.3°C 63.1°F17.3°C 94% 5.0 mph NNE8.0 kmh NNE 9.0 mph14.5 kmh 29.77 in1008.1 mb 0.01 in0.3 mm 0.00 in0.0 mm 0.53 in13.5 mm
04:00 AM 64.9°F18.3°C 63.1°F17.3°C 94% 5.0 mph NE8.0 kmh NE 9.0 mph14.5 kmh 29.77 in1008.1 mb 0.04 in1.0 mm 0.00 in0.0 mm 0.53 in13.5 mm
03:40 AM 64.9°F18.3°C 63.1°F17.3°C 94% 6.0 mph NE9.7 kmh NE 12.0 mph19.3 kmh 29.76 in1007.8 mb 0.15 in3.8 mm 0.00 in0.0 mm 0.53 in13.5 mm
03:20 AM 65.1°F18.4°C 63.6°F17.6°C 95% 3.0 mph NNE4.8 kmh NNE 7.0 mph11.3 kmh 29.76 in1007.8 mb 0.27 in6.9 mm 0.06 in1.5 mm 0.52 in13.2 mm
03:00 AM 65.0°F18.3°C 63.5°F17.5°C 95% 4.0 mph NNE6.4 kmh NNE 9.0 mph14.5 kmh 29.76 in1007.8 mb 0.25 in6.4 mm 0.18 in4.6 mm 0.49 in12.4 mm
02:40 AM 65.2°F18.4°C 63.4°F17.4°C 94% 7.0 mph NNE11.3 kmh NNE 13.0 mph20.9 kmh 29.75 in1007.5 mb 0.13 in3.3 mm 0.36 in9.1 mm 0.37 in9.4 mm
02:20 AM 65.6°F18.7°C 63.8°F17.7°C 94% 4.0 mph NNE6.4 kmh NNE 9.0 mph14.5 kmh 29.74 in1007.1 mb 0.01 in0.3 mm 0.00 in0.0 mm 0.25 in6.4 mm
02:00 AM 65.6°F18.7°C 63.8°F17.7°C 94% 3.0 mph N4.8 kmh N 8.0 mph12.9 kmh 29.75 in1007.5 mb 0.11 in2.8 mm 0.00 in0.0 mm 0.24 in6.1 mm
01:40 AM 65.7°F18.7°C 63.9°F17.7°C 94% 4.0 mph NNE6.4 kmh NNE 9.0 mph14.5 kmh 29.74 in1007.1 mb 0.24 in6.1 mm 0.00 in0.0 mm 0.24 in6.1 mm
01:20 AM 65.9°F18.8°C 64.1°F17.8°C 94% 4.0 mph NNE6.4 kmh NNE 9.0 mph14.5 kmh 29.75 in1007.5 mb 0.24 in6.1 mm 0.33 in8.4 mm 0.24 in6.1 mm
01:00 AM 66.6°F19.2°C 64.5°F18.1°C 93% 5.0 mph NNE8.0 kmh NNE 11.0 mph17.7 kmh 29.77 in1008.1 mb 0.13 in3.3 mm 0.18 in4.6 mm 0.13 in3.3 mm
12:40 AM 67.9°F19.9°C 65.8°F18.8°C 93% 5.0 mph NNE8.0 kmh NNE 10.0 mph16.1 kmh 29.77 in1008.1 mb 0.01 in0.3 mm 0.00 in0.0 mm 0.11 in2.8 mm
12:20 AM 69.0°F20.6°C 66.9°F19.4°C 93% 4.0 mph NNE6.4 kmh NNE 13.0 mph20.9 kmh 29.77 in1008.1 mb 0.03 in0.8 mm 0.00 in0.0 mm 0.11 in2.8 mm
12:00 AM 70.6°F21.4°C 69.1°F20.6°C 95% 2.0 mph N3.2 kmh N 5.0 mph8.0 kmh 29.77 in1008.1 mb 0.11 in2.8 mm 0.00 in0.0 mm 0.11 in2.8 mm